Time;durP1;ratioP1;P1;durP2;ratioP2;P2;SDS_P1;SDS_P2;PMS_P1;PMS_P2;Temp;Humidity;BMP_temperature;BMP_pressure;BME280_temperature;BME280_humidity;BME280_pressure;Samples;Min_cycle;Max_cycle;Signal;HPM_P1;HPM_P2
2023/06/28 00:01:19;;;;;;;14.18;1.98;;;;;;;;;;4992406;28;92314;-76
2023/06/28 00:03:47;;;;;;;8.68;1.92;;;;;;;;;;4992014;28;92618;-77
2023/06/28 00:06:14;;;;;;;10.93;1.92;;;;;;;;;;4988629;28;93011;-78
2023/06/28 00:08:41;;;;;;;6.72;1.80;;;;;;;;;;4982651;28;94921;-77
2023/06/28 00:11:08;;;;;;;6.35;2.17;;;;;;;;;;4992205;28;95731;-76
2023/06/28 00:13:34;;;;;;;7.07;2.00;;;;;;;;;;4994331;28;94328;-77
2023/06/28 00:16:02;;;;;;;4.93;1.83;;;;;;;;;;4991990;28;92537;-77
2023/06/28 00:18:29;;;;;;;;;;;;;;;;;;4991555;28;94381;-77
2023/06/28 00:20:56;;;;;;;6.57;1.65;;;;;;;;;;4985920;28;92560;-77
2023/06/28 00:23:23;;;;;;;6.47;1.50;;;;;;;;;;4992882;27;96010;-78
2023/06/28 00:25:50;;;;;;;7.65;1.67;;;;;;;;;;4996698;28;93264;-78
2023/06/28 00:28:16;;;;;;;5.93;1.60;;;;;;;;;;4991630;28;95617;-78
2023/06/28 00:30:43;;;;;;;5.30;1.75;;;;;;;;;;4989792;28;93929;-78
2023/06/28 00:33:10;;;;;;;4.75;1.70;;;;;;;;;;4987674;28;98176;-77
2023/06/28 00:35:38;;;;;;;4.78;1.60;;;;;;;;;;4984252;28;92528;-76
2023/06/28 00:38:06;;;;;;;4.25;1.70;;;;;;;;;;4990855;28;92851;-77
2023/06/28 00:40:32;;;;;;;5.40;1.70;;;;;;;;;;4991899;28;92633;-76
2023/06/28 00:42:59;;;;;;;7.85;1.88;;;;;;;;;;4988967;28;95396;-78
2023/06/28 00:45:26;;;;;;;8.35;1.83;;;;;;;;;;4990392;28;93001;-77
2023/06/28 00:47:52;;;;;;;6.68;1.73;;;;;;;;;;4991046;28;93000;-77
2023/06/28 00:50:19;;;;;;;7.90;1.80;;;;;;;;;;4988245;28;92756;-77
2023/06/28 00:52:46;;;;;;;6.20;1.80;;;;;;;;;;4992537;28;93160;-77
2023/06/28 00:55:16;;;;;;;5.57;1.98;;;;;;;;;;4990874;28;92500;-78
2023/06/28 00:57:42;;;;;;;5.13;1.70;;;;;;;;;;4990084;28;95300;-77
2023/06/28 01:00:12;;;;;;;6.07;1.88;;;;;;;;;;4991728;28;93417;-77
2023/06/28 01:02:44;;;;;;;5.05;1.75;;;;;;;;;;4991651;28;93107;-77
2023/06/28 01:05:13;;;;;;;6.35;1.65;;;;;;;;;;4983915;28;93207;-77
2023/06/28 01:07:40;;;;;;;4.45;1.70;;;;;;;;;;4990657;28;93092;-78
2023/06/28 01:10:07;;;;;;;3.35;1.60;;;;;;;;;;5002163;28;93452;-78
2023/06/28 01:12:35;;;;;;;7.53;1.98;;;;;;;;;;4990669;28;96032;-76
2023/06/28 01:15:03;;;;;;;5.43;1.60;;;;;;;;;;4991639;28;93926;-76
2023/06/28 01:17:30;;;;;;;5.68;1.70;;;;;;;;;;4982857;28;92464;-78
2023/06/28 01:19:56;;;;;;;4.82;1.73;;;;;;;;;;4990981;28;92938;-76
2023/06/28 01:22:25;;;;;;;5.10;1.80;;;;;;;;;;4989131;28;94937;-78
2023/06/28 01:24:52;;;;;;;5.50;1.60;;;;;;;;;;4998891;28;94044;-78
2023/06/28 01:27:20;;;;;;;4.55;1.50;;;;;;;;;;4989394;28;92444;-78
2023/06/28 01:29:55;;;;;;;4.10;1.65;;;;;;;;;;4978359;28;95492;-78
2023/06/28 01:32:23;;;;;;;5.90;1.70;;;;;;;;;;4992516;28;94000;-78
2023/06/28 01:34:50;;;;;;;5.07;1.73;;;;;;;;;;4991643;28;93072;-78
2023/06/28 01:37:17;;;;;;;4.45;1.50;;;;;;;;;;4990356;28;94133;-78
2023/06/28 01:39:44;;;;;;;;;;;;;;;;;;4996807;28;92531;-78
2023/06/28 01:42:12;;;;;;;5.07;1.55;;;;;;;;;;4990789;28;113626;-76
2023/06/28 01:44:39;;;;;;;4.78;1.60;;;;;;;;;;4988393;28;93917;-77
2023/06/28 01:47:06;;;;;;;5.32;1.70;;;;;;;;;;4986318;28;95287;-76
2023/06/28 01:49:33;;;;;;;4.38;1.65;;;;;;;;;;4988707;28;93897;-78
2023/06/28 01:52:00;;;;;;;3.92;1.65;;;;;;;;;;4982947;28;93969;-77
2023/06/28 01:54:27;;;;;;;5.93;1.90;;;;;;;;;;4990365;28;94096;-77
2023/06/28 01:56:53;;;;;;;5.07;1.98;;;;;;;;;;4990944;28;93224;-76
2023/06/28 01:59:20;;;;;;;5.22;1.60;;;;;;;;;;4986810;28;93257;-75
2023/06/28 02:01:47;;;;;;;5.07;1.70;;;;;;;;;;4992073;28;92413;-76
2023/06/28 02:04:13;;;;;;;4.88;1.70;;;;;;;;;;4988958;28;93738;-76
2023/06/28 02:06:40;;;;;;;4.03;1.60;;;;;;;;;;4987874;28;92771;-77
2023/06/28 02:09:07;;;;;;;;;;;;;;;;;;4990794;28;93925;-78
2023/06/28 02:11:34;;;;;;;4.72;1.60;;;;;;;;;;4990054;27;95550;-76
2023/06/28 02:14:00;;;;;;;4.68;1.58;;;;;;;;;;4989007;28;93483;-77
2023/06/28 02:16:27;;;;;;;4.35;1.60;;;;;;;;;;4990657;27;92620;-76
2023/06/28 02:18:57;;;;;;;4.05;1.83;;;;;;;;;;4988649;28;95650;-78
2023/06/28 02:21:23;;;;;;;5.40;1.60;;;;;;;;;;4988342;28;100285;-76
2023/06/28 02:23:50;;;;;;;6.25;1.60;;;;;;;;;;4991330;28;93230;-76
2023/06/28 02:26:16;;;;;;;4.45;1.75;;;;;;;;;;4990627;28;92743;-76
2023/06/28 02:28:45;;;;;;;5.70;1.65;;;;;;;;;;4978662;28;95752;-78
2023/06/28 02:31:16;;;;;;;4.18;1.50;;;;;;;;;;4988498;28;94109;-79
2023/06/28 02:33:44;;;;;;;5.70;1.95;;;;;;;;;;4989582;28;92729;-76
2023/06/28 02:36:12;;;;;;;4.20;1.70;;;;;;;;;;4977976;28;94794;-78
2023/06/28 02:38:41;;;;;;;6.20;1.70;;;;;;;;;;4977273;28;95645;-77
2023/06/28 02:41:07;;;;;;;3.88;1.48;;;;;;;;;;4984978;28;92671;-76
2023/06/28 02:43:36;;;;;;;3.90;1.70;;;;;;;;;;4987323;28;95937;-76
2023/06/28 02:46:03;;;;;;;5.53;1.70;;;;;;;;;;4991382;28;94557;-76
2023/06/28 02:48:30;;;;;;;5.15;1.70;;;;;;;;;;4987939;28;95265;-77
2023/06/28 02:50:56;;;;;;;4.30;1.70;;;;;;;;;;4987974;28;95835;-76
2023/06/28 02:53:23;;;;;;;5.65;1.98;;;;;;;;;;4993398;27;91669;-76
2023/06/28 02:55:50;;;;;;;4.18;1.45;;;;;;;;;;4989656;28;94149;-76
2023/06/28 02:58:22;;;;;;;4.75;1.60;;;;;;;;;;4977972;28;93071;-76
2023/06/28 03:00:49;;;;;;;5.07;1.70;;;;;;;;;;4988543;28;94849;-77
2023/06/28 03:03:17;;;;;;;4.18;1.55;;;;;;;;;;4977256;28;97845;-76
2023/06/28 03:05:43;;;;;;;5.32;1.90;;;;;;;;;;4970665;28;101376;-76
2023/06/28 03:08:10;;;;;;;5.35;1.70;;;;;;;;;;4983969;28;92698;-76
2023/06/28 03:10:37;;;;;;;5.50;1.88;;;;;;;;;;4954436;28;95868;-76
2023/06/28 03:13:03;;;;;;;4.55;1.70;;;;;;;;;;4982447;28;92432;-76
2023/06/28 03:15:30;;;;;;;6.38;1.60;;;;;;;;;;4979420;28;95911;-76
2023/06/28 03:17:56;;;;;;;3.50;1.40;;;;;;;;;;4968781;28;94415;-76
2023/06/28 03:20:23;;;;;;;4.28;1.67;;;;;;;;;;5001235;28;92574;-76
2023/06/28 03:22:50;;;;;;;4.57;1.40;;;;;;;;;;4967333;28;95516;-76
2023/06/28 03:25:16;;;;;;;3.08;1.50;;;;;;;;;;4974300;28;96009;-78
2023/06/28 03:27:43;;;;;;;3.35;1.60;;;;;;;;;;4991548;27;92541;-76
2023/06/28 03:30:09;;;;;;;3.42;1.40;;;;;;;;;;4988184;28;92803;-78
2023/06/28 03:32:36;;;;;;;4.38;1.40;;;;;;;;;;4980262;28;92518;-75
2023/06/28 03:35:03;;;;;;;5.97;1.70;;;;;;;;;;4978062;28;93880;-77
2023/06/28 03:37:30;;;;;;;4.32;1.75;;;;;;;;;;4979703;28;95849;-76
2023/06/28 03:39:56;;;;;;;5.78;1.70;;;;;;;;;;4989326;28;93286;-76
2023/06/28 03:42:23;;;;;;;3.38;1.50;;;;;;;;;;4987899;28;93987;-75
2023/06/28 03:44:50;;;;;;;4.07;1.73;;;;;;;;;;4987817;28;95823;-75
2023/06/28 03:47:16;;;;;;;4.53;1.73;;;;;;;;;;4989738;28;92412;-77
2023/06/28 03:49:45;;;;;;;4.85;1.58;;;;;;;;;;4988497;27;96323;-77
2023/06/28 03:52:11;;;;;;;6.32;1.70;;;;;;;;;;4987317;27;92493;-76
2023/06/28 03:54:38;;;;;;;3.35;1.45;;;;;;;;;;4989992;27;92957;-78
2023/06/28 03:57:05;;;;;;;3.90;1.50;;;;;;;;;;4972121;28;96702;-77
2023/06/28 03:59:31;;;;;;;4.47;1.50;;;;;;;;;;4980800;28;92616;-76
2023/06/28 04:01:58;;;;;;;6.47;1.65;;;;;;;;;;4989484;28;92934;-76
2023/06/28 04:04:24;;;;;;;3.58;1.67;;;;;;;;;;4988797;28;92995;-76
2023/06/28 04:06:51;;;;;;;6.70;1.67;;;;;;;;;;4975911;28;91727;-76
2023/06/28 04:09:18;;;;;;;3.78;1.75;;;;;;;;;;4988660;27;92429;-77
2023/06/28 04:11:44;;;;;;;3.38;1.33;;;;;;;;;;4996016;28;93297;-77
2023/06/28 04:14:11;;;;;;;2.72;1.35;;;;;;;;;;4986767;28;95215;-77
2023/06/28 04:16:37;;;;;;;4.78;1.40;;;;;;;;;;4988947;27;93483;-76
2023/06/28 04:19:04;;;;;;;5.10;1.50;;;;;;;;;;4991415;27;92475;-78
2023/06/28 04:21:32;;;;;;;7.20;1.77;;;;;;;;;;4984195;27;94212;-78
2023/06/28 04:23:59;;;;;;;6.13;1.73;;;;;;;;;;4989688;28;93558;-78
2023/06/28 04:26:26;;;;;;;5.72;1.90;;;;;;;;;;4990100;28;92582;-78
2023/06/28 04:28:53;;;;;;;4.82;1.58;;;;;;;;;;4980379;28;93808;-78
2023/06/28 04:31:19;;;;;;;5.20;1.63;;;;;;;;;;4987925;27;91726;-77
2023/06/28 04:33:46;;;;;;;4.07;1.65;;;;;;;;;;4992108;28;92623;-77
2023/06/28 04:36:13;;;;;;;5.07;1.67;;;;;;;;;;4991125;27;92792;-76
2023/06/28 04:38:41;;;;;;;6.30;2.00;;;;;;;;;;4989801;28;94977;-76
2023/06/28 04:41:07;;;;;;;6.85;1.60;;;;;;;;;;4989792;28;95232;-76
2023/06/28 04:43:40;;;;;;;6.18;1.85;;;;;;;;;;4985833;28;93104;-76
2023/06/28 04:46:11;;;;;;;4.20;1.80;;;;;;;;;;4989763;28;92460;-78
2023/06/28 04:48:39;;;;;;;5.28;1.65;;;;;;;;;;4984731;28;94251;-79
2023/06/28 04:51:06;;;;;;;6.05;1.80;;;;;;;;;;4993316;27;93711;-78
2023/06/28 04:53:32;;;;;;;6.28;1.67;;;;;;;;;;4995575;27;92608;-79
2023/06/28 04:56:00;;;;;;;8.65;2.30;;;;;;;;;;5010414;28;91945;-79
2023/06/28 04:58:27;;;;;;;8.57;1.83;;;;;;;;;;5005276;27;92538;-78
2023/06/28 05:00:56;;;;;;;7.57;2.08;;;;;;;;;;4991295;27;93691;-78
2023/06/28 05:03:27;;;;;;;4.50;1.83;;;;;;;;;;4985842;28;95321;-77
2023/06/28 05:05:54;;;;;;;7.68;1.95;;;;;;;;;;4981853;28;92403;-78
2023/06/28 05:08:21;;;;;;;9.70;2.22;;;;;;;;;;4985132;27;93973;-78
2023/06/28 05:10:48;;;;;;;5.57;1.80;;;;;;;;;;4995487;28;92953;-78
2023/06/28 05:13:14;;;;;;;6.03;2.22;;;;;;;;;;4990314;28;92511;-78
2023/06/28 05:15:41;;;;;;;6.90;2.10;;;;;;;;;;4990705;27;92365;-78
2023/06/28 05:18:08;;;;;;;5.05;2.05;;;;;;;;;;4988352;28;92532;-78
2023/06/28 05:20:34;;;;;;;6.15;2.38;;;;;;;;;;4991356;27;92103;-78
2023/06/28 05:23:07;;;;;;;5.80;2.00;;;;;;;;;;4989963;27;92424;-78
2023/06/28 05:25:34;;;;;;;4.95;1.58;;;;;;;;;;4990609;28;93017;-78
2023/06/28 05:28:01;;;;;;;7.43;2.45;;;;;;;;;;4988268;28;94750;-77
2023/06/28 05:30:27;;;;;;;4.55;2.00;;;;;;;;;;4981500;27;93000;-78
2023/06/28 05:32:54;;;;;;;6.82;2.00;;;;;;;;;;4987227;27;92461;-78
2023/06/28 05:35:20;;;;;;;6.13;1.83;;;;;;;;;;4980942;28;92797;-78
2023/06/28 05:37:47;;;;;;;7.32;2.20;;;;;;;;;;4992920;27;93191;-78
2023/06/28 05:40:13;;;;;;;7.00;1.98;;;;;;;;;;4989279;28;95533;-79
2023/06/28 05:42:40;;;;;;;9.00;2.20;;;;;;;;;;4977944;28;93325;-79
2023/06/28 05:45:08;;;;;;;6.18;1.80;;;;;;;;;;4982204;27;91801;-79
2023/06/28 05:47:34;;;;;;;4.93;1.73;;;;;;;;;;4990257;28;92852;-79
2023/06/28 05:50:01;;;;;;;7.05;1.90;;;;;;;;;;4977861;28;93253;-78
2023/06/28 05:52:27;;;;;;;4.75;1.90;;;;;;;;;;4987679;28;94951;-79
2023/06/28 05:54:54;;;;;;;6.60;2.10;;;;;;;;;;4989926;28;94112;-78
2023/06/28 05:57:20;;;;;;;4.03;1.58;;;;;;;;;;4998193;28;92722;-78
2023/06/28 05:59:47;;;;;;;5.45;1.77;;;;;;;;;;4987311;28;92647;-77
2023/06/28 06:02:14;;;;;;;5.78;1.60;;;;;;;;;;4991394;27;93960;-78
2023/06/28 06:04:41;;;;;;;6.40;1.80;;;;;;;;;;4990267;28;92360;-77
2023/06/28 06:07:07;;;;;;;4.43;1.83;;;;;;;;;;4990475;27;93929;-78
2023/06/28 06:09:34;;;;;;;6.53;1.92;;;;;;;;;;4991774;27;92172;-77
2023/06/28 06:12:01;;;;;;;6.80;2.00;;;;;;;;;;4988785;28;92408;-77
2023/06/28 06:14:29;;;;;;;8.00;2.10;;;;;;;;;;4979135;28;92870;-76
2023/06/28 06:16:56;;;;;;;6.63;1.90;;;;;;;;;;4988386;28;94875;-76
2023/06/28 06:19:22;;;;;;;6.30;2.00;;;;;;;;;;4989330;27;92747;-76
2023/06/28 06:21:49;;;;;;;4.75;1.80;;;;;;;;;;4995068;28;92936;-76
2023/06/28 06:24:15;;;;;;;4.82;2.00;;;;;;;;;;4974699;28;92891;-77
2023/06/28 06:26:42;;;;;;;5.43;2.08;;;;;;;;;;4980747;28;94534;-77
2023/06/28 06:29:09;;;;;;;6.97;1.95;;;;;;;;;;4995441;28;93247;-77
2023/06/28 06:31:35;;;;;;;6.32;1.80;;;;;;;;;;4987315;28;93330;-77
2023/06/28 06:34:03;;;;;;;5.40;1.83;;;;;;;;;;4990192;28;93982;-78
2023/06/28 06:36:30;;;;;;;7.15;1.90;;;;;;;;;;4996369;28;93718;-80
2023/06/28 06:38:57;;;;;;;5.15;1.70;;;;;;;;;;5005285;27;92523;-78
2023/06/28 06:41:23;;;;;;;7.57;1.92;;;;;;;;;;4993006;28;94983;-77
2023/06/28 06:43:50;;;;;;;;;;;;;;;;;;5006281;28;92788;-77
2023/06/28 06:46:20;;;;;;;7.03;1.77;;;;;;;;;;5010084;28;92395;-78
2023/06/28 06:48:47;;;;;;;4.85;1.90;;;;;;;;;;5008235;28;92704;-76
2023/06/28 06:51:14;;;;;;;7.03;2.15;;;;;;;;;;5007696;28;94803;-76
2023/06/28 06:53:41;;;;;;;5.07;1.70;;;;;;;;;;4989415;27;92850;-77
2023/06/28 06:56:07;;;;;;;4.38;1.75;;;;;;;;;;4999891;28;94933;-76
2023/06/28 06:58:34;;;;;;;6.65;1.80;;;;;;;;;;4998613;28;91803;-77
2023/06/28 07:01:02;;;;;;;5.15;1.77;;;;;;;;;;4995704;28;92425;-78
2023/06/28 07:03:28;;;;;;;6.30;2.17;;;;;;;;;;4993049;27;93232;-78
2023/06/28 07:05:55;;;;;;;6.72;1.92;;;;;;;;;;4995768;27;94863;-77
2023/06/28 07:08:22;;;;;;;4.20;2.15;;;;;;;;;;4985611;28;92623;-78
2023/06/28 07:10:48;;;;;;;6.75;1.90;;;;;;;;;;4993981;28;92456;-77
2023/06/28 07:13:15;;;;;;;7.00;2.03;;;;;;;;;;4987897;28;92909;-78
2023/06/28 07:15:43;;;;;;;5.28;1.75;;;;;;;;;;4976990;28;93107;-79
2023/06/28 07:18:09;;;;;;;9.55;2.20;;;;;;;;;;4987169;28;92556;-79
2023/06/28 07:20:36;;;;;;;4.85;1.60;;;;;;;;;;4988882;28;93067;-77
2023/06/28 07:23:03;;;;;;;7.15;2.25;;;;;;;;;;4977625;28;92716;-77
2023/06/28 07:25:32;;;;;;;5.32;2.00;;;;;;;;;;4983392;28;92636;-77
2023/06/28 07:27:59;;;;;;;5.05;1.90;;;;;;;;;;4986611;27;92988;-77
2023/06/28 07:30:25;;;;;;;;;;;;;;;;;;4982053;28;95466;-77
2023/06/28 07:32:52;;;;;;;7.43;1.80;;;;;;;;;;4989513;27;96399;-78
2023/06/28 07:35:19;;;;;;;5.90;1.73;;;;;;;;;;4988770;28;94009;-76
2023/06/28 07:37:45;;;;;;;6.80;1.95;;;;;;;;;;4988522;28;92481;-77
2023/06/28 07:40:13;;;;;;;4.65;1.90;;;;;;;;;;4987042;28;93353;-78
2023/06/28 07:42:42;;;;;;;6.78;1.73;;;;;;;;;;4980192;28;93466;-76
2023/06/28 07:45:09;;;;;;;5.07;1.60;;;;;;;;;;4964862;28;92398;-77
2023/06/28 07:47:36;;;;;;;4.65;2.03;;;;;;;;;;4971486;28;93032;-76
2023/06/28 07:50:04;;;;;;;6.88;2.08;;;;;;;;;;4998653;28;92585;-77
2023/06/28 07:52:30;;;;;;;3.47;1.77;;;;;;;;;;4964530;28;93226;-77
2023/06/28 07:54:57;;;;;;;4.75;1.80;;;;;;;;;;4969181;28;96518;-78
2023/06/28 07:57:23;;;;;;;4.75;2.00;;;;;;;;;;4956949;28;93087;-77
2023/06/28 07:59:50;;;;;;;5.55;1.73;;;;;;;;;;4970048;28;93001;-78
2023/06/28 08:02:17;;;;;;;5.53;1.90;;;;;;;;;;4971886;28;92894;-77
2023/06/28 08:04:43;;;;;;;5.95;2.08;;;;;;;;;;4977743;28;93428;-78
2023/06/28 08:07:10;;;;;;;5.90;2.00;;;;;;;;;;4975068;28;93713;-78
2023/06/28 08:09:36;;;;;;;5.55;2.00;;;;;;;;;;4965044;28;93118;-77
2023/06/28 08:12:03;;;;;;;5.45;1.90;;;;;;;;;;4959435;28;93688;-77
2023/06/28 08:14:30;;;;;;;5.63;1.85;;;;;;;;;;4964848;28;96434;-77
2023/06/28 08:16:56;;;;;;;6.63;1.70;;;;;;;;;;4958993;28;92448;-77
2023/06/28 08:19:24;;;;;;;3.72;1.90;;;;;;;;;;4986177;28;95132;-76
2023/06/28 08:21:51;;;;;;;4.70;1.88;;;;;;;;;;4966550;28;93383;-77
2023/06/28 08:24:18;;;;;;;4.90;1.80;;;;;;;;;;4971638;28;92608;-77
2023/06/28 08:26:45;;;;;;;4.53;1.92;;;;;;;;;;4966272;28;93402;-76
2023/06/28 08:29:15;;;;;;;5.53;2.00;;;;;;;;;;4970594;28;93013;-77
2023/06/28 08:31:42;;;;;;;3.90;1.75;;;;;;;;;;4973550;28;93093;-76
2023/06/28 08:34:09;;;;;;;5.53;2.15;;;;;;;;;;4975078;28;95806;-78
2023/06/28 08:36:36;;;;;;;5.07;2.08;;;;;;;;;;4977121;28;92074;-78
2023/06/28 08:39:03;;;;;;;4.50;1.80;;;;;;;;;;4973313;28;92405;-78
2023/06/28 08:41:30;;;;;;;3.65;1.70;;;;;;;;;;4974479;28;94496;-78
2023/06/28 08:43:59;;;;;;;4.95;1.92;;;;;;;;;;4972912;28;95237;-78
2023/06/28 08:46:29;;;;;;;4.32;1.88;;;;;;;;;;4970771;28;98033;-77
2023/06/28 08:48:59;;;;;;;4.65;2.08;;;;;;;;;;4974346;28;92769;-77
2023/06/28 08:51:25;;;;;;;11.32;4.95;;;;;;;;;;4968973;28;92845;-76
2023/06/28 08:53:54;;;;;;;10.77;4.53;;;;;;;;;;4963892;28;93439;-77
2023/06/28 08:56:22;;;;;;;10.75;4.60;;;;;;;;;;4960033;28;92932;-78
2023/06/28 08:58:49;;;;;;;9.82;3.90;;;;;;;;;;4963173;28;100275;-77
2023/06/28 09:01:15;;;;;;;14.40;4.63;;;;;;;;;;4979062;28;92356;-77
2023/06/28 09:03:42;;;;;;;13.07;5.35;;;;;;;;;;4971666;28;92918;-77
2023/06/28 09:06:10;;;;;;;12.10;5.75;;;;;;;;;;4965117;28;92808;-76
2023/06/28 09:08:37;;;;;;;11.70;5.40;;;;;;;;;;4962227;28;95516;-77
2023/06/28 09:11:04;;;;;;;;;;;;;;;;;;4963572;28;92707;-78
2023/06/28 09:13:30;;;;;;;10.10;4.55;;;;;;;;;;4966083;28;106870;-78
2023/06/28 09:15:57;;;;;;;14.35;6.03;;;;;;;;;;4963188;28;93152;-77
2023/06/28 09:18:23;;;;;;;12.63;4.68;;;;;;;;;;4970379;28;92737;-78
2023/06/28 09:20:51;;;;;;;14.00;5.25;;;;;;;;;;4970338;28;93109;-77
2023/06/28 09:23:17;;;;;;;;;;;;;;;;;;4970696;28;92948;-77
2023/06/28 09:25:44;;;;;;;12.10;5.57;;;;;;;;;;4987536;28;109859;-77
2023/06/28 09:28:11;;;;;;;12.80;4.20;;;;;;;;;;4980474;28;96005;-77
2023/06/28 09:30:56;;;;;;;12.45;4.35;;;;;;;;;;4979048;28;92440;-77
2023/06/28 09:33:23;;;;;;;11.75;4.72;;;;;;;;;;4972954;28;95282;-78
2023/06/28 09:35:53;;;;;;;13.00;5.38;;;;;;;;;;4980637;28;96011;-79
2023/06/28 09:38:20;;;;;;;11.05;4.93;;;;;;;;;;4971470;28;94008;-78
2023/06/28 09:40:57;;;;;;;13.00;5.78;;;;;;;;;;4974024;28;96092;-77
2023/06/28 09:43:24;;;;;;;13.07;4.57;;;;;;;;;;4967758;28;92962;-77
2023/06/28 09:45:53;;;;;;;12.88;5.10;;;;;;;;;;4983606;28;93319;-78
2023/06/28 09:48:25;;;;;;;14.52;4.63;;;;;;;;;;4989045;28;93284;-78
2023/06/28 09:50:52;;;;;;;12.25;4.63;;;;;;;;;;4990639;28;91706;-79
2023/06/28 09:53:19;;;;;;;14.38;4.68;;;;;;;;;;4984874;28;92471;-79
2023/06/28 09:55:47;;;;;;;10.52;3.70;;;;;;;;;;4969754;28;98082;-80
2023/06/28 09:58:14;;;;;;;14.88;5.30;;;;;;;;;;4971445;28;94926;-78
2023/06/28 10:00:42;;;;;;;14.50;5.80;;;;;;;;;;4956745;28;93550;-77
2023/06/28 10:03:08;;;;;;;;;;;;;;;;;;4966367;28;92448;-78
2023/06/28 10:05:37;;;;;;;13.48;5.78;;;;;;;;;;4970256;28;105098;-78
2023/06/28 10:08:06;;;;;;;14.88;6.38;;;;;;;;;;4966754;28;93059;-79
2023/06/28 10:10:33;;;;;;;10.15;3.90;;;;;;;;;;4971802;28;92483;-78
2023/06/28 10:13:00;;;;;;;;;;;;;;;;;;4965752;28;95191;-79
2023/06/28 10:15:26;;;;;;;13.15;4.70;;;;;;;;;;4968243;28;103939;-78
2023/06/28 10:17:53;;;;;;;11.48;3.97;;;;;;;;;;4968549;28;92456;-77
2023/06/28 10:20:20;;;;;;;15.48;6.65;;;;;;;;;;4971983;28;94009;-78
2023/06/28 10:22:48;;;;;;;14.55;6.25;;;;;;;;;;4966403;28;95497;-77
2023/06/28 10:25:14;;;;;;;12.90;3.72;;;;;;;;;;4958660;28;95386;-78
2023/06/28 10:27:42;;;;;;;15.07;6.95;;;;;;;;;;4968251;28;93880;-78
2023/06/28 10:30:09;;;;;;;14.98;7.07;;;;;;;;;;4981509;28;92865;-76
2023/06/28 10:32:36;;;;;;;16.70;7.00;;;;;;;;;;4964345;28;92957;-76
2023/06/28 10:35:03;;;;;;;15.48;6.85;;;;;;;;;;4969384;28;93555;-77
2023/06/28 10:37:30;;;;;;;15.30;6.80;;;;;;;;;;4969029;28;92833;-78
2023/06/28 10:39:56;;;;;;;15.88;7.72;;;;;;;;;;5003219;28;92775;-78
2023/06/28 10:42:23;;;;;;;14.38;7.22;;;;;;;;;;4974172;28;93056;-76
2023/06/28 10:44:50;;;;;;;15.52;6.63;;;;;;;;;;4972316;28;92694;-76
2023/06/28 10:47:17;;;;;;;11.27;5.55;;;;;;;;;;4974732;28;95389;-77
2023/06/28 10:50:04;;;;;;;16.70;7.78;;;;;;;;;;4988791;28;97483;-76
2023/06/28 10:52:31;;;;;;;11.63;5.15;;;;;;;;;;4989886;28;93109;-76
2023/06/28 10:54:57;;;;;;;11.07;4.53;;;;;;;;;;4985334;28;92944;-77
2023/06/28 10:57:37;;;;;;;16.30;8.10;;;;;;;;;;4986213;28;92530;-76
2023/06/28 11:00:11;;;;;;;13.85;6.80;;;;;;;;;;4987098;28;93107;-76
2023/06/28 11:02:37;;;;;;;;;;;;;;;;;;4981988;28;93654;-76
2023/06/28 11:05:04;;;;;;;17.95;8.35;;;;;;;;;;4986431;28;91991;-76
2023/06/28 11:07:31;;;;;;;20.52;8.05;;;;;;;;;;4981996;28;93281;-76
2023/06/28 11:10:11;;;;;;;19.40;8.75;;;;;;;;;;4978269;28;92607;-76
2023/06/28 11:12:38;;;;;;;15.82;8.10;;;;;;;;;;4978260;28;96003;-77
2023/06/28 11:15:13;;;;;;;17.92;9.10;;;;;;;;;;4985332;28;93143;-77
2023/06/28 11:17:40;;;;;;;19.58;9.57;;;;;;;;;;4984464;28;92551;-77
2023/06/28 11:20:07;;;;;;;15.32;7.70;;;;;;;;;;4991782;28;92722;-77
2023/06/28 11:22:46;;;;;;;19.08;9.75;;;;;;;;;;4985704;28;93097;-77
2023/06/28 11:25:13;;;;;;;19.95;10.23;;;;;;;;;;4988893;28;92447;-77
2023/06/28 11:27:40;;;;;;;16.83;9.00;;;;;;;;;;4991931;28;93533;-76
2023/06/28 11:30:07;;;;;;;17.33;9.80;;;;;;;;;;4992598;28;92217;-78
2023/06/28 11:32:35;;;;;;;18.98;10.10;;;;;;;;;;4971421;28;93667;-77
2023/06/28 11:35:03;;;;;;;19.65;9.75;;;;;;;;;;4964333;28;94085;-77
2023/06/28 11:37:30;;;;;;;16.95;9.50;;;;;;;;;;4972517;28;96417;-77
2023/06/28 11:39:58;;;;;;;18.73;9.15;;;;;;;;;;4981448;27;95511;-76
2023/06/28 11:42:24;;;;;;;;;;;;;;;;;;4985277;27;92826;-76
2023/06/28 11:44:51;;;;;;;17.08;8.05;;;;;;;;;;4985473;28;93021;-77
2023/06/28 11:47:20;;;;;;;16.67;9.38;;;;;;;;;;4985105;27;93310;-77
2023/06/28 11:49:51;;;;;;;16.10;7.40;;;;;;;;;;4984553;27;93442;-76
2023/06/28 11:52:18;;;;;;;22.25;12.15;;;;;;;;;;4984769;27;93343;-77
2023/06/28 11:54:44;;;;;;;22.70;11.15;;;;;;;;;;4980296;28;93155;-76
2023/06/28 11:57:11;;;;;;;20.95;10.18;;;;;;;;;;4989919;27;92480;-77
2023/06/28 11:59:44;;;;;;;16.17;7.65;;;;;;;;;;4986985;27;93029;-77
2023/06/28 12:02:11;;;;;;;14.02;8.05;;;;;;;;;;4984427;27;95501;-77
2023/06/28 12:04:38;;;;;;;22.40;11.60;;;;;;;;;;4985324;27;93547;-77
2023/06/28 12:07:05;;;;;;;20.20;11.60;;;;;;;;;;4992065;28;93122;-77
2023/06/28 12:09:35;;;;;;;20.55;10.60;;;;;;;;;;4977642;28;93279;-77
2023/06/28 12:12:05;;;;;;;19.55;10.88;;;;;;;;;;4990548;28;93281;-78
2023/06/28 12:14:39;;;;;;;24.80;12.90;;;;;;;;;;4983741;27;93480;-77
2023/06/28 12:17:06;;;;;;;22.73;12.13;;;;;;;;;;4977264;28;92471;-77
2023/06/28 12:19:33;;;;;;;22.45;12.82;;;;;;;;;;4984238;28;91755;-77
2023/06/28 12:22:00;;;;;;;23.23;12.13;;;;;;;;;;4998203;28;92893;-76
2023/06/28 12:24:27;;;;;;;22.60;11.32;;;;;;;;;;4950278;28;92567;-77
2023/06/28 12:26:54;;;;;;;18.83;9.95;;;;;;;;;;4971980;28;94794;-76
2023/06/28 12:29:21;;;;;;;;;;;;;;;;;;4982822;27;93503;-76
2023/06/28 12:31:48;;;;;;;15.32;6.57;;;;;;;;;;4992341;28;93113;-77
2023/06/28 12:34:28;;;;;;;13.95;5.95;;;;;;;;;;4990430;27;93359;-77
2023/06/28 12:36:55;;;;;;;10.38;4.82;;;;;;;;;;4990846;28;92768;-77
2023/06/28 12:39:26;;;;;;;10.50;5.13;;;;;;;;;;4992408;27;92725;-77
2023/06/28 12:42:26;;;;;;;10.18;4.95;;;;;;;;;;4994611;28;93012;-77
2023/06/28 12:44:58;;;;;;;11.55;5.10;;;;;;;;;;4975706;28;91953;-77
2023/06/28 12:47:24;;;;;;;10.90;5.13;;;;;;;;;;4988817;27;93273;-76
2023/06/28 12:49:51;;;;;;;9.75;4.95;;;;;;;;;;4993884;28;94573;-77
2023/06/28 12:52:18;;;;;;;9.18;4.70;;;;;;;;;;4989106;28;95176;-77
2023/06/28 12:54:45;;;;;;;9.82;4.72;;;;;;;;;;4992312;27;95037;-77
2023/06/28 12:57:12;;;;;;;10.52;4.88;;;;;;;;;;4989688;28;92928;-77
2023/06/28 12:59:39;;;;;;;10.70;4.53;;;;;;;;;;4989028;28;93783;-75
2023/06/28 13:02:07;;;;;;;9.48;4.63;;;;;;;;;;4990745;27;93255;-77
2023/06/28 13:04:34;;;;;;;10.60;5.07;;;;;;;;;;4988888;28;92472;-77
2023/06/28 13:07:01;;;;;;;8.80;4.70;;;;;;;;;;4989842;28;94225;-77
2023/06/28 13:09:28;;;;;;;11.98;4.60;;;;;;;;;;4990027;28;92320;-77
2023/06/28 13:11:55;;;;;;;8.82;4.68;;;;;;;;;;4991146;27;92411;-77
2023/06/28 13:14:21;;;;;;;9.05;4.28;;;;;;;;;;4986886;28;92671;-77
2023/06/28 13:16:48;;;;;;;8.70;4.60;;;;;;;;;;4991961;27;95593;-77
2023/06/28 13:19:15;;;;;;;10.18;4.35;;;;;;;;;;4990261;28;95446;-77
2023/06/28 13:21:41;;;;;;;7.97;4.20;;;;;;;;;;4998019;28;93400;-75
2023/06/28 13:24:08;;;;;;;8.60;4.38;;;;;;;;;;4991042;28;92415;-75
2023/06/28 13:26:34;;;;;;;8.15;3.95;;;;;;;;;;4986066;28;93204;-75
2023/06/28 13:29:01;;;;;;;9.65;4.35;;;;;;;;;;4974132;28;94613;-75
2023/06/28 13:31:28;;;;;;;8.73;4.45;;;;;;;;;;4993005;28;92526;-75
2023/06/28 13:33:55;;;;;;;8.38;4.25;;;;;;;;;;4992719;28;93976;-75
2023/06/28 13:36:23;;;;;;;8.98;4.35;;;;;;;;;;5002818;28;95091;-75
2023/06/28 13:38:50;;;;;;;8.82;4.30;;;;;;;;;;4993689;28;92536;-76
2023/06/28 13:41:17;;;;;;;8.98;4.40;;;;;;;;;;4987036;28;96443;-76
2023/06/28 13:43:43;;;;;;;7.95;4.25;;;;;;;;;;4989560;28;92519;-76
2023/06/28 13:46:10;;;;;;;8.20;3.90;;;;;;;;;;4991016;28;92635;-76
2023/06/28 13:48:36;;;;;;;7.53;4.18;;;;;;;;;;4991114;28;93064;-75
2023/06/28 13:51:03;;;;;;;9.73;4.68;;;;;;;;;;4997788;28;92565;-76
2023/06/28 13:53:30;;;;;;;8.27;4.22;;;;;;;;;;4987958;28;94436;-76
2023/06/28 13:55:58;;;;;;;8.60;4.28;;;;;;;;;;4987550;28;93019;-76
2023/06/28 13:58:26;;;;;;;9.45;4.57;;;;;;;;;;4990730;28;92004;-77
2023/06/28 14:00:56;;;;;;;7.90;4.57;;;;;;;;;;4987921;28;95876;-77
2023/06/28 14:03:24;;;;;;;8.57;4.57;;;;;;;;;;4988708;28;92401;-76
2023/06/28 14:05:51;;;;;;;9.18;4.28;;;;;;;;;;4991549;28;96516;-76
2023/06/28 14:08:18;;;;;;;9.60;4.88;;;;;;;;;;4995070;28;93259;-77
2023/06/28 14:10:45;;;;;;;8.63;4.70;;;;;;;;;;4986060;28;93021;-76
2023/06/28 14:13:13;;;;;;;18.98;9.02;;;;;;;;;;4985682;28;93288;-77
2023/06/28 14:15:43;;;;;;;18.90;10.70;;;;;;;;;;4949898;28;96667;-77
2023/06/28 14:18:10;;;;;;;22.73;12.02;;;;;;;;;;4993629;28;92448;-77
2023/06/28 14:20:36;;;;;;;24.17;11.75;;;;;;;;;;4990288;28;93225;-77
2023/06/28 14:23:03;;;;;;;24.30;12.88;;;;;;;;;;4990202;28;91940;-77
2023/06/28 14:25:30;;;;;;;22.80;12.98;;;;;;;;;;4990073;27;92359;-77
2023/06/28 14:27:56;;;;;;;24.02;13.00;;;;;;;;;;4984301;28;96239;-77
2023/06/28 14:30:26;;;;;;;22.40;12.27;;;;;;;;;;4990796;28;94843;-78
2023/06/28 14:32:53;;;;;;;23.85;13.25;;;;;;;;;;4999234;28;98917;-77
2023/06/28 14:35:21;;;;;;;19.23;10.15;;;;;;;;;;5003925;28;94694;-77
2023/06/28 14:37:48;;;;;;;27.45;12.13;;;;;;;;;;5013186;28;93104;-77
2023/06/28 14:40:15;;;;;;;25.17;12.43;;;;;;;;;;4995991;28;92454;-78
2023/06/28 14:42:42;;;;;;;25.35;12.98;;;;;;;;;;5005011;28;93299;-78